mdes weather

Peñuela / Esperanza Field
Valverde, Valverde Province, Dominican Republic

Public forecast

Using degrees Celsius for public forecast. Weather courtesy of forecast.io.

Closest aviation weather report (METAR) to Peñuela / Esperanza Field

Closest report is Cibao International Airport, 22.6 nm (41.9 km) ESE. Retrieved 2020/03/31 06:00 UTC (1 hour ago):

MDST 310600Z 00000KT 9999 FEW018 22/20 Q1015

Closest aviation forecast (TAF) to Peñuela / Esperanza Field

Forecast is more than 6 hours old.

Closest forecast is Cibao International Airport, 22.6 nm (41.9 km) ESE. Retrieved 2020-03-31 00:34 UTC (6 hours ago):

TAF MDST 302200Z 3100/0100 10008KT 9999 SCT018 BECMG 3106/3108 00000KT